createdAt,value
2023-04-27T00:04:18.239Z,3.20
2023-04-27T00:06:46.248Z,3.20
2023-04-27T00:09:14.184Z,3.10
2023-04-27T00:11:42.244Z,3.10
2023-04-27T00:14:11.446Z,3.00
2023-04-27T00:16:39.364Z,2.90
2023-04-27T00:19:08.611Z,2.90
2023-04-27T00:21:36.737Z,2.90
2023-04-27T00:24:04.791Z,2.80
2023-04-27T00:26:32.664Z,2.70
2023-04-27T00:29:00.678Z,2.70
2023-04-27T00:31:29.885Z,2.70
2023-04-27T00:33:57.778Z,2.70
2023-04-27T00:36:27.155Z,2.70
2023-04-27T00:38:55.028Z,2.70
2023-04-27T00:41:23.263Z,2.70
2023-04-27T00:43:51.121Z,2.60
2023-04-27T00:46:19.783Z,2.50
2023-04-27T00:48:49.413Z,2.40
2023-04-27T00:51:17.677Z,2.40
2023-04-27T00:53:45.594Z,2.30
2023-04-27T00:56:13.836Z,2.30
2023-04-27T00:58:41.707Z,2.20
2023-04-27T01:01:10.877Z,2.20
2023-04-27T01:03:38.840Z,2.10
2023-04-27T01:06:08.472Z,2.10
2023-04-27T01:08:36.651Z,2.00
2023-04-27T01:11:04.881Z,2.00
2023-04-27T01:13:33.028Z,1.90
2023-04-27T01:16:00.985Z,1.90
2023-04-27T01:18:29.115Z,1.90
2023-04-27T01:20:57.304Z,1.80
2023-04-27T01:23:26.898Z,1.80
2023-04-27T01:25:54.751Z,1.80
2023-04-27T01:28:22.612Z,1.80
2023-04-27T01:30:50.562Z,1.80
2023-04-27T01:33:18.532Z,1.90
2023-04-27T01:35:46.908Z,1.90
2023-04-27T01:38:14.822Z,2.00
2023-04-27T01:40:44.060Z,2.00
2023-04-27T01:43:11.924Z,2.00
2023-04-27T01:45:39.770Z,2.00
2023-04-27T01:48:07.664Z,2.00
2023-04-27T01:50:35.584Z,1.90
2023-04-27T01:53:03.453Z,1.90
2023-04-27T01:55:31.325Z,1.90
2023-04-27T01:58:00.685Z,2.00
2023-04-27T02:00:28.612Z,2.00
2023-04-27T02:02:57.515Z,1.90
2023-04-27T02:05:25.516Z,2.00
2023-04-27T02:07:53.390Z,2.00
2023-04-27T02:10:22.221Z,2.00
2023-04-27T02:12:50.084Z,2.00
2023-04-27T02:15:19.309Z,2.00
2023-04-27T02:17:47.230Z,2.00
2023-04-27T02:20:15.237Z,2.00
2023-04-27T02:22:44.522Z,2.00
2023-04-27T02:25:12.812Z,2.00
2023-04-27T02:27:41.317Z,2.00
2023-04-27T02:30:10.845Z,2.00
2023-04-27T02:32:41.199Z,2.00
2023-04-27T02:35:09.696Z,2.00
2023-04-27T02:37:37.780Z,2.00
2023-04-27T02:40:07.400Z,2.00
2023-04-27T02:42:35.618Z,2.00
2023-04-27T02:45:03.502Z,2.00
2023-04-27T02:47:31.343Z,2.00
2023-04-27T02:50:00.584Z,2.00
2023-04-27T02:52:28.479Z,2.00
2023-04-27T02:54:56.337Z,2.00
2023-04-27T02:57:24.184Z,2.00
2023-04-27T02:59:52.045Z,2.00
2023-04-27T03:02:19.916Z,2.10
2023-04-27T03:04:47.884Z,2.00
2023-04-27T03:07:17.243Z,2.00
2023-04-27T03:09:45.107Z,2.00
2023-04-27T03:12:13.247Z,2.00
2023-04-27T03:14:41.174Z,2.00
2023-04-27T03:17:09.131Z,2.10
2023-04-27T03:19:37.133Z,2.00
2023-04-27T03:22:05.000Z,2.00
2023-04-27T03:24:34.330Z,2.00
2023-04-27T03:27:02.238Z,2.00
2023-04-27T03:29:30.235Z,2.00
2023-04-27T03:31:58.326Z,2.10
2023-04-27T03:34:26.305Z,2.00
2023-04-27T03:36:54.151Z,2.10
2023-04-27T03:39:22.020Z,2.10
2023-04-27T03:41:51.243Z,2.10
2023-04-27T03:44:19.133Z,2.10
2023-04-27T03:46:46.984Z,2.10
2023-04-27T03:49:15.001Z,2.10
2023-04-27T03:51:43.982Z,2.10
2023-04-27T03:54:11.951Z,2.10
2023-04-27T03:56:39.915Z,2.10
2023-04-27T03:59:09.463Z,2.10
2023-04-27T04:01:37.502Z,2.10
2023-04-27T04:04:05.598Z,2.10
2023-04-27T04:06:33.549Z,2.20
2023-04-27T04:09:01.486Z,2.20
2023-04-27T04:11:29.428Z,2.20
2023-04-27T04:13:57.257Z,2.30
2023-04-27T04:16:26.541Z,2.30
2023-04-27T04:18:54.437Z,2.30
2023-04-27T04:21:22.252Z,2.30
2023-04-27T04:23:50.139Z,2.30
2023-04-27T04:26:17.974Z,2.40
2023-04-27T04:28:46.116Z,2.40
2023-04-27T04:31:16.014Z,2.50
2023-04-27T04:33:45.353Z,2.50
2023-04-27T04:36:13.244Z,2.50
2023-04-27T04:38:41.375Z,2.50
2023-04-27T04:41:10.486Z,2.60
2023-04-27T04:43:38.517Z,2.60
2023-04-27T04:46:06.613Z,2.60
2023-04-27T04:48:34.682Z,2.70
2023-04-27T04:51:05.560Z,2.70
2023-04-27T04:53:33.531Z,2.70
2023-04-27T04:56:08.989Z,2.80
2023-04-27T04:58:36.838Z,2.80
2023-04-27T05:01:04.746Z,2.90
2023-04-27T05:03:32.803Z,2.90
2023-04-27T05:06:00.775Z,3.00
2023-04-27T05:08:30.112Z,3.00
2023-04-27T05:10:57.997Z,3.10
2023-04-27T05:13:26.839Z,3.20
2023-04-27T05:15:54.848Z,3.20
2023-04-27T05:18:22.824Z,3.20
2023-04-27T05:20:50.754Z,3.30
2023-04-27T05:23:18.671Z,3.30
2023-04-27T05:25:47.893Z,3.30
2023-04-27T05:28:16.219Z,3.40
2023-04-27T05:30:44.124Z,3.40
2023-04-27T05:33:12.025Z,3.40
2023-04-27T05:35:39.920Z,3.50
2023-04-27T05:38:07.751Z,3.50
2023-04-27T05:40:35.786Z,3.60
2023-04-27T05:43:05.708Z,3.70
2023-04-27T05:45:33.807Z,3.70
2023-04-27T05:48:01.848Z,3.80
2023-04-27T05:50:29.801Z,3.80
2023-04-27T05:52:57.688Z,3.90
2023-04-27T05:55:25.573Z,4.00
2023-04-27T05:58:06.608Z,4.00
2023-04-27T06:00:38.323Z,4.10
2023-04-27T06:03:06.446Z,4.20
2023-04-27T06:05:34.808Z,4.30
2023-04-27T06:08:02.983Z,4.30
2023-04-27T06:10:31.035Z,4.40
2023-04-27T06:12:58.885Z,4.40
2023-04-27T06:15:26.873Z,4.50
2023-04-27T06:17:56.294Z,4.60
2023-04-27T06:20:24.224Z,4.70
2023-04-27T06:22:52.242Z,4.80
2023-04-27T06:25:20.108Z,4.80
2023-04-27T06:27:47.954Z,4.90
2023-04-27T06:30:15.867Z,5.00
2023-04-27T06:32:43.783Z,5.10
2023-04-27T06:35:13.215Z,5.20
2023-04-27T06:37:41.261Z,5.30
2023-04-27T06:40:09.552Z,5.40
2023-04-27T06:42:37.563Z,5.50
2023-04-27T06:45:07.210Z,5.60
2023-04-27T06:47:35.182Z,5.80
2023-04-27T06:50:03.121Z,5.90
2023-04-27T06:52:34.114Z,6.00
2023-04-27T06:55:01.946Z,6.20
2023-04-27T06:57:29.793Z,6.30
2023-04-27T06:59:57.653Z,6.40
2023-04-27T07:02:25.768Z,6.50
2023-04-27T07:04:53.783Z,6.70
2023-04-27T07:07:21.736Z,6.80
2023-04-27T07:09:51.087Z,6.90
2023-04-27T07:12:19.004Z,7.00
2023-04-27T07:14:46.922Z,7.20
2023-04-27T07:17:14.816Z,7.30
2023-04-27T07:19:42.721Z,7.40
2023-04-27T07:22:11.600Z,7.60
2023-04-27T07:24:39.579Z,7.70
2023-04-27T07:27:09.363Z,7.90
2023-04-27T07:29:38.001Z,8.00
2023-04-27T07:32:06.661Z,8.20
2023-04-27T07:34:49.034Z,8.30
2023-04-27T07:37:20.492Z,8.40
2023-04-27T07:39:50.124Z,8.60
2023-04-27T07:42:19.499Z,8.90
2023-04-27T07:44:47.391Z,9.20
2023-04-27T07:47:15.291Z,9.40
2023-04-27T07:49:45.505Z,9.50
2023-04-27T07:52:13.395Z,9.60
2023-04-27T07:54:41.545Z,9.60
2023-04-27T07:57:10.466Z,9.60
2023-04-27T07:59:40.304Z,9.70
2023-04-27T08:02:20.413Z,9.80
2023-04-27T08:04:49.110Z,9.90
2023-04-27T08:07:17.814Z,10.10
2023-04-27T08:09:45.860Z,10.20
2023-04-27T08:12:13.770Z,10.30
2023-04-27T08:14:43.069Z,10.40
2023-04-27T08:17:11.285Z,10.50
2023-04-27T08:19:39.234Z,10.60
2023-04-27T08:22:07.112Z,10.80
2023-04-27T08:24:34.971Z,11.00
2023-04-27T08:27:03.681Z,11.10
2023-04-27T08:29:31.757Z,11.30
2023-04-27T08:32:02.277Z,11.50
2023-04-27T08:34:30.389Z,11.80
2023-04-27T08:36:58.507Z,11.90
2023-04-27T08:39:26.367Z,12.10
2023-04-27T08:41:54.448Z,12.10
2023-04-27T08:44:22.406Z,12.20
2023-04-27T08:46:50.891Z,12.20
2023-04-27T08:49:20.973Z,12.20
2023-04-27T08:51:49.161Z,12.20
2023-04-27T08:54:17.046Z,12.40
2023-04-27T08:56:44.922Z,12.60
2023-04-27T08:59:16.864Z,12.50
2023-04-27T09:01:45.905Z,12.60
2023-04-27T09:04:14.068Z,12.60
2023-04-27T09:06:43.382Z,12.60
2023-04-27T09:09:11.514Z,12.60
2023-04-27T09:11:40.002Z,12.70
2023-04-27T09:14:17.004Z,12.80
2023-04-27T09:16:45.072Z,12.90
2023-04-27T09:19:13.517Z,13.00
2023-04-27T09:21:43.448Z,13.30
2023-04-27T09:24:12.565Z,13.60
2023-04-27T09:26:42.555Z,13.60
2023-04-27T09:29:10.605Z,13.40
2023-04-27T09:31:38.547Z,13.30
2023-04-27T09:34:06.934Z,13.50
2023-04-27T09:36:35.380Z,13.90
2023-04-27T09:39:05.528Z,14.20
2023-04-27T09:41:33.781Z,14.50
2023-04-27T09:44:01.960Z,14.60
2023-04-27T09:46:30.397Z,14.60
2023-04-27T09:48:58.558Z,14.60
2023-04-27T09:51:26.464Z,14.60
2023-04-27T09:53:57.516Z,14.80
2023-04-27T09:56:33.520Z,14.90
2023-04-27T09:59:16.744Z,15.00
2023-04-27T10:01:47.674Z,15.30
2023-04-27T10:04:27.837Z,15.80
2023-04-27T10:07:00.254Z,16.10
2023-04-27T10:09:30.496Z,16.20
2023-04-27T10:12:14.308Z,16.40
2023-04-27T10:14:49.426Z,16.50
2023-04-27T10:17:17.421Z,17.00
2023-04-27T10:19:57.324Z,17.40
2023-04-27T10:22:37.653Z,17.50
2023-04-27T10:25:13.710Z,17.90
2023-04-27T10:27:42.960Z,17.90
2023-04-27T10:30:11.989Z,17.90
2023-04-27T10:32:51.480Z,18.20
2023-04-27T10:35:20.098Z,18.80
2023-04-27T10:37:48.673Z,19.30
2023-04-27T10:40:17.983Z,19.60
2023-04-27T10:42:49.745Z,20.20
2023-04-27T10:45:31.829Z,20.30
2023-04-27T10:48:09.061Z,20.40
2023-04-27T10:50:37.151Z,20.50
2023-04-27T10:53:06.204Z,20.70
2023-04-27T10:55:34.460Z,20.90
2023-04-27T10:58:04.247Z,20.90
2023-04-27T11:00:33.095Z,20.50
2023-04-27T11:03:11.634Z,20.70
2023-04-27T11:05:39.739Z,20.80
2023-04-27T11:08:08.348Z,21.20
2023-04-27T11:10:37.086Z,21.50
2023-04-27T11:13:13.296Z,21.70
2023-04-27T11:15:48.145Z,21.80
2023-04-27T11:18:16.671Z,21.50
2023-04-27T11:20:44.738Z,21.30
2023-04-27T11:23:12.816Z,21.10
2023-04-27T11:25:40.726Z,20.40
2023-04-27T11:28:19.469Z,20.10
2023-04-27T11:30:47.718Z,20.50
2023-04-27T11:33:15.951Z,20.80
2023-04-27T11:35:43.825Z,21.10
2023-04-27T11:38:16.905Z,19.80
2023-04-27T11:40:44.821Z,19.30
2023-04-27T11:43:13.447Z,19.30
2023-04-27T11:45:44.885Z,20.00
2023-04-27T11:48:16.793Z,20.60
2023-04-27T11:50:47.498Z,20.60
2023-04-27T11:53:17.410Z,21.00
2023-04-27T11:55:53.115Z,20.20
2023-04-27T11:58:22.032Z,20.70
2023-04-27T12:00:51.412Z,21.00
2023-04-27T12:03:19.540Z,21.20
2023-04-27T12:05:51.215Z,21.50
2023-04-27T12:08:19.341Z,21.30
2023-04-27T12:10:47.285Z,21.00
2023-04-27T12:13:15.296Z,21.20
2023-04-27T12:15:43.407Z,21.50
2023-04-27T12:18:12.628Z,21.80
2023-04-27T12:20:40.891Z,22.10
2023-04-27T12:23:08.818Z,22.50
2023-04-27T12:25:36.818Z,22.80
2023-04-27T12:28:04.940Z,23.10
2023-04-27T12:30:32.825Z,23.20
2023-04-27T12:33:00.921Z,23.50
2023-04-27T12:35:32.163Z,23.20
2023-04-27T12:38:00.133Z,23.50
2023-04-27T12:40:28.052Z,23.80
2023-04-27T12:42:56.206Z,23.90
2023-04-27T12:45:24.310Z,24.20
2023-04-27T12:48:02.523Z,23.90
2023-04-27T12:50:33.561Z,23.80
2023-04-27T12:53:01.485Z,24.10
2023-04-27T12:55:32.914Z,24.30
2023-04-27T12:58:01.948Z,24.10
2023-04-27T13:00:30.414Z,24.00
2023-04-27T13:02:59.062Z,24.20
2023-04-27T13:05:27.563Z,24.70
2023-04-27T13:07:58.007Z,25.10
2023-04-27T13:10:25.872Z,24.90
2023-04-27T13:12:53.741Z,24.50
2023-04-27T13:15:21.810Z,24.30
2023-04-27T13:17:49.742Z,24.40
2023-04-27T13:20:17.633Z,24.40
2023-04-27T13:22:45.773Z,24.10
2023-04-27T13:25:16.516Z,24.30
2023-04-27T13:27:44.475Z,24.20
2023-04-27T13:30:12.588Z,24.20
2023-04-27T13:32:40.582Z,23.90
2023-04-27T13:35:09.128Z,23.50
2023-04-27T13:37:37.000Z,23.90
2023-04-27T13:40:06.560Z,24.30
2023-04-27T13:42:35.858Z,24.60
2023-04-27T13:45:04.281Z,24.90
2023-04-27T13:47:37.981Z,25.10
2023-04-27T13:50:06.798Z,25.10
2023-04-27T13:52:35.562Z,25.00
2023-04-27T13:55:04.144Z,24.80
2023-04-27T13:57:32.067Z,25.00
2023-04-27T14:00:01.767Z,24.80
2023-04-27T14:02:30.465Z,24.70
2023-04-27T14:04:58.664Z,25.10
2023-04-27T14:07:26.703Z,25.10
2023-04-27T14:09:54.596Z,25.40
2023-04-27T14:12:22.430Z,25.50
2023-04-27T14:14:50.356Z,25.50
2023-04-27T14:17:19.564Z,25.40
2023-04-27T14:19:47.518Z,25.40
2023-04-27T14:22:15.775Z,25.10
2023-04-27T14:24:43.741Z,24.80
2023-04-27T14:27:11.586Z,24.50
2023-04-27T14:29:39.540Z,24.70
2023-04-27T14:32:07.497Z,24.70
2023-04-27T14:34:37.273Z,24.60
2023-04-27T14:37:05.114Z,24.60
2023-04-27T14:39:33.038Z,24.20
2023-04-27T14:42:00.949Z,24.20
2023-04-27T14:44:29.073Z,23.80
2023-04-27T14:46:58.212Z,23.60
2023-04-27T14:49:26.245Z,23.50
2023-04-27T14:51:55.816Z,23.20
2023-04-27T14:54:23.800Z,22.90
2023-04-27T14:56:51.924Z,22.70
2023-04-27T14:59:19.838Z,22.40
2023-04-27T15:01:49.015Z,22.30
2023-04-27T15:04:17.361Z,22.10
2023-04-27T15:06:47.399Z,21.80
2023-04-27T15:09:16.843Z,21.50
2023-04-27T15:11:44.687Z,21.40
2023-04-27T15:14:12.565Z,21.20
2023-04-27T15:16:40.535Z,21.00
2023-04-27T15:19:08.544Z,20.80
2023-04-27T15:21:36.553Z,20.70
2023-04-27T15:24:04.611Z,20.80
2023-04-27T15:26:33.865Z,20.90
2023-04-27T15:29:01.777Z,21.00
2023-04-27T15:31:29.707Z,21.10
2023-04-27T15:33:57.629Z,21.10
2023-04-27T15:36:26.770Z,21.10
2023-04-27T15:38:54.705Z,21.00
2023-04-27T15:41:23.015Z,21.00
2023-04-27T15:43:52.719Z,21.00
2023-04-27T15:46:20.835Z,21.00
2023-04-27T15:48:48.805Z,21.00
2023-04-27T15:51:16.740Z,20.80
2023-04-27T15:53:44.643Z,20.70
2023-04-27T15:56:12.553Z,20.60
2023-04-27T15:58:40.448Z,20.40
2023-04-27T16:01:09.715Z,20.00
2023-04-27T16:03:38.239Z,19.70
2023-04-27T16:06:07.069Z,19.50
2023-04-27T16:08:34.904Z,19.20
2023-04-27T16:11:02.851Z,19.00
2023-04-27T16:13:32.522Z,18.80
2023-04-27T16:16:00.584Z,18.30
2023-04-27T16:18:29.902Z,18.10
2023-04-27T16:20:58.711Z,17.80
2023-04-27T16:23:26.586Z,17.50
2023-04-27T16:25:54.440Z,17.30
2023-04-27T16:28:22.297Z,16.90
2023-04-27T16:30:50.499Z,16.70
2023-04-27T16:33:21.194Z,16.50
2023-04-27T16:35:50.540Z,16.30
2023-04-27T16:38:18.423Z,16.20
2023-04-27T16:40:46.304Z,16.00
2023-04-27T16:43:14.187Z,15.80
2023-04-27T16:45:42.692Z,15.70
2023-04-27T16:48:13.406Z,15.50
2023-04-27T16:50:42.062Z,15.30
2023-04-27T16:53:13.549Z,15.10
2023-04-27T16:55:41.481Z,14.90
2023-04-27T16:58:09.399Z,14.70
2023-04-27T17:00:37.749Z,14.60
2023-04-27T17:03:05.935Z,14.40
2023-04-27T17:05:33.855Z,14.30
2023-04-27T17:08:04.246Z,14.10
2023-04-27T17:10:36.528Z,14.00
2023-04-27T17:13:05.107Z,13.80
2023-04-27T17:15:32.991Z,13.70
2023-04-27T17:18:02.981Z,13.60
2023-04-27T17:20:30.934Z,13.50
2023-04-27T17:22:59.091Z,13.40
2023-04-27T17:25:27.070Z,13.30
2023-04-27T17:27:56.294Z,13.20
2023-04-27T17:30:25.259Z,13.10
2023-04-27T17:32:53.161Z,12.90
2023-04-27T17:35:21.600Z,12.80
2023-04-27T17:37:49.488Z,12.70
2023-04-27T17:40:20.690Z,12.60
2023-04-27T17:42:48.627Z,12.50
2023-04-27T17:45:18.054Z,12.40
2023-04-27T17:47:46.107Z,12.30
2023-04-27T17:50:14.734Z,12.20
2023-04-27T17:52:42.603Z,12.10
2023-04-27T17:55:10.512Z,12.00
2023-04-27T17:57:38.405Z,11.90
2023-04-27T18:00:07.067Z,11.80
2023-04-27T18:02:36.443Z,11.70
2023-04-27T18:05:04.509Z,11.60
2023-04-27T18:07:32.367Z,11.50
2023-04-27T18:10:00.269Z,11.40
2023-04-27T18:12:28.361Z,11.30
2023-04-27T18:14:56.326Z,11.10
2023-04-27T18:17:24.192Z,11.00
2023-04-27T18:20:06.944Z,11.00
2023-04-27T18:22:36.270Z,10.90
2023-04-27T18:25:04.339Z,10.80
2023-04-27T18:27:32.965Z,10.80
2023-04-27T18:30:01.050Z,10.70
2023-04-27T18:32:28.941Z,10.70
2023-04-27T18:34:58.252Z,10.60
2023-04-27T18:37:26.141Z,10.50
2023-04-27T18:39:54.079Z,10.50
2023-04-27T18:42:22.725Z,10.40
2023-04-27T18:44:50.588Z,10.40
2023-04-27T18:47:18.415Z,10.30
2023-04-27T18:49:46.280Z,10.20
2023-04-27T18:52:15.591Z,10.10
2023-04-27T18:54:43.455Z,10.10
2023-04-27T18:57:11.341Z,10.00
2023-04-27T18:59:39.731Z,9.90
2023-04-27T19:02:07.584Z,9.80
2023-04-27T19:04:35.772Z,9.70
2023-04-27T19:07:03.817Z,9.60
2023-04-27T19:09:33.055Z,9.50
2023-04-27T19:12:03.284Z,9.40
2023-04-27T19:14:32.038Z,9.30
2023-04-27T19:16:59.978Z,9.10
2023-04-27T19:19:27.931Z,9.10
2023-04-27T19:21:55.998Z,9.00
2023-04-27T19:24:23.840Z,8.80
2023-04-27T19:26:53.080Z,8.80
2023-04-27T19:29:23.205Z,8.60
2023-04-27T19:31:51.104Z,8.60
2023-04-27T19:34:19.047Z,8.40
2023-04-27T19:36:47.185Z,8.40
2023-04-27T19:39:15.949Z,8.30
2023-04-27T19:41:43.893Z,8.20
2023-04-27T19:44:13.335Z,8.10
2023-04-27T19:46:41.417Z,8.00
2023-04-27T19:49:09.322Z,7.90
2023-04-27T19:51:37.159Z,7.70
2023-04-27T19:54:05.011Z,7.70
2023-04-27T19:56:34.227Z,7.60
2023-04-27T19:59:02.120Z,7.60
2023-04-27T20:01:31.353Z,7.50
2023-04-27T20:03:59.410Z,7.40
2023-04-27T20:06:27.337Z,7.30
2023-04-27T20:08:55.175Z,7.30
2023-04-27T20:11:23.120Z,7.20
2023-04-27T20:13:51.076Z,7.10
2023-04-27T20:16:19.806Z,7.10
2023-04-27T20:18:49.711Z,7.10
2023-04-27T20:21:17.571Z,7.00
2023-04-27T20:23:45.440Z,6.90
2023-04-27T20:26:13.316Z,6.90
2023-04-27T20:28:41.204Z,6.80
2023-04-27T20:31:09.058Z,6.80
2023-04-27T20:33:36.935Z,6.80
2023-04-27T20:36:14.139Z,6.70
2023-04-27T20:38:44.934Z,6.70
2023-04-27T20:41:13.210Z,6.60
2023-04-27T20:43:41.341Z,6.60
2023-04-27T20:46:09.247Z,6.60
2023-04-27T20:48:37.118Z,6.60
2023-04-27T20:51:06.340Z,6.60
2023-04-27T20:53:34.219Z,6.60
2023-04-27T20:56:02.359Z,6.60
2023-04-27T20:58:30.214Z,6.50
2023-04-27T21:00:58.145Z,6.50
2023-04-27T21:03:26.159Z,6.50
2023-04-27T21:05:54.260Z,6.40
2023-04-27T21:08:23.502Z,6.40
2023-04-27T21:10:51.367Z,6.30
2023-04-27T21:13:19.568Z,6.30
2023-04-27T21:15:47.415Z,6.30
2023-04-27T21:18:29.065Z,6.30
2023-04-27T21:20:57.838Z,6.30
2023-04-27T21:23:27.024Z,6.20
2023-04-27T21:25:54.859Z,6.20
2023-04-27T21:28:22.759Z,6.20
2023-04-27T21:30:50.637Z,6.20
2023-04-27T21:33:18.518Z,6.20
2023-04-27T21:35:46.411Z,6.20
2023-04-27T21:38:14.271Z,6.10
2023-04-27T21:40:43.572Z,6.10
2023-04-27T21:43:11.513Z,6.00
2023-04-27T21:45:39.599Z,6.10
2023-04-27T21:48:07.496Z,6.00
2023-04-27T21:50:35.375Z,6.00
2023-04-27T21:53:03.229Z,6.00
2023-04-27T21:55:31.128Z,5.90
2023-04-27T21:58:00.371Z,5.90
2023-04-27T22:00:28.545Z,5.90
2023-04-27T22:02:56.832Z,5.80
2023-04-27T22:05:24.911Z,5.80
2023-04-27T22:07:53.369Z,5.70
2023-04-27T22:10:21.254Z,5.70
2023-04-27T22:12:49.091Z,5.60
2023-04-27T22:15:19.796Z,5.60
2023-04-27T22:17:47.734Z,5.60
2023-04-27T22:20:16.145Z,5.50
2023-04-27T22:22:44.174Z,5.40
2023-04-27T22:25:12.311Z,5.30
2023-04-27T22:27:45.100Z,5.30
2023-04-27T22:30:14.222Z,5.20
2023-04-27T22:32:43.525Z,5.20
2023-04-27T22:35:24.798Z,5.10
2023-04-27T22:37:54.759Z,5.10
2023-04-27T22:40:22.724Z,5.00
2023-04-27T22:42:50.696Z,4.90
2023-04-27T22:45:18.584Z,4.90
2023-04-27T22:47:49.284Z,4.80
2023-04-27T22:50:17.383Z,4.70
2023-04-27T22:52:45.282Z,4.60
2023-04-27T22:55:13.277Z,4.60
2023-04-27T22:57:41.478Z,4.50
2023-04-27T23:00:11.465Z,4.50
2023-04-27T23:02:40.280Z,4.50
2023-04-27T23:05:10.652Z,4.40
2023-04-27T23:07:38.816Z,4.40
2023-04-27T23:10:07.174Z,4.30
2023-04-27T23:12:35.043Z,4.30
2023-04-27T23:15:03.022Z,4.30
2023-04-27T23:17:31.570Z,4.30
2023-04-27T23:20:00.237Z,4.20
2023-04-27T23:22:29.590Z,4.20
2023-04-27T23:24:57.438Z,4.10
2023-04-27T23:27:25.291Z,4.00
2023-04-27T23:29:53.172Z,4.00
2023-04-27T23:32:21.132Z,4.00
2023-04-27T23:34:49.002Z,3.90
2023-04-27T23:37:17.204Z,3.90
2023-04-27T23:39:46.503Z,3.90
2023-04-27T23:42:14.329Z,3.90
2023-04-27T23:44:42.531Z,3.80
2023-04-27T23:47:10.650Z,3.80
2023-04-27T23:49:38.525Z,3.80
2023-04-27T23:52:06.428Z,3.80
2023-04-27T23:54:34.277Z,3.70
2023-04-27T23:57:04.153Z,3.70
2023-04-27T23:59:34.218Z,3.70
